sensor_id;sensor_type;location;lat;lon;timestamp;temperature;humidity
79489;SHT31;68949;53.176;18.088;2023-04-19T00:01:28;4.67;65.31
79489;SHT31;68949;53.176;18.088;2023-04-19T00:03:54;4.64;65.38
79489;SHT31;68949;53.176;18.088;2023-04-19T00:06:22;4.60;65.47
79489;SHT31;68949;53.176;18.088;2023-04-19T00:08:49;4.55;65.56
79489;SHT31;68949;53.176;18.088;2023-04-19T00:11:16;4.49;65.75
79489;SHT31;68949;53.176;18.088;2023-04-19T00:13:43;4.44;66.18
79489;SHT31;68949;53.176;18.088;2023-04-19T00:16:10;4.41;66.28
79489;SHT31;68949;53.176;18.088;2023-04-19T00:18:36;4.37;66.36
79489;SHT31;68949;53.176;18.088;2023-04-19T00:21:04;4.30;66.43
79489;SHT31;68949;53.176;18.088;2023-04-19T00:23:31;4.24;66.69
79489;SHT31;68949;53.176;18.088;2023-04-19T00:25:57;4.16;67.06
79489;SHT31;68949;53.176;18.088;2023-04-19T00:28:24;4.12;67.18
79489;SHT31;68949;53.176;18.088;2023-04-19T00:30:52;4.08;67.55
79489;SHT31;68949;53.176;18.088;2023-04-19T00:33:19;4.04;67.64
79489;SHT31;68949;53.176;18.088;2023-04-19T00:35:45;3.97;68.06
79489;SHT31;68949;53.176;18.088;2023-04-19T00:38:13;3.92;68.21
79489;SHT31;68949;53.176;18.088;2023-04-19T00:40:43;3.88;68.61
79489;SHT31;68949;53.176;18.088;2023-04-19T00:43:10;3.84;69.01
79489;SHT31;68949;53.176;18.088;2023-04-19T00:45:37;3.81;69.13
79489;SHT31;68949;53.176;18.088;2023-04-19T00:48:03;3.76;69.36
79489;SHT31;68949;53.176;18.088;2023-04-19T00:50:30;3.71;69.77
79489;SHT31;68949;53.176;18.088;2023-04-19T00:52:57;3.66;70.04
79489;SHT31;68949;53.176;18.088;2023-04-19T00:55:25;3.63;70.58
79489;SHT31;68949;53.176;18.088;2023-04-19T00:57:52;3.61;70.79
79489;SHT31;68949;53.176;18.088;2023-04-19T01:00:19;3.56;70.98
79489;SHT31;68949;53.176;18.088;2023-04-19T01:02:46;3.52;71.01
79489;SHT31;68949;53.176;18.088;2023-04-19T01:05:13;3.47;71.24
79489;SHT31;68949;53.176;18.088;2023-04-19T01:07:41;3.44;71.68
79489;SHT31;68949;53.176;18.088;2023-04-19T01:10:08;3.40;71.80
79489;SHT31;68949;53.176;18.088;2023-04-19T01:12:35;3.36;72.03
79489;SHT31;68949;53.176;18.088;2023-04-19T01:15:03;3.32;72.13
79489;SHT31;68949;53.176;18.088;2023-04-19T01:17:31;3.27;72.62
79489;SHT31;68949;53.176;18.088;2023-04-19T01:20:04;3.24;73.08
79489;SHT31;68949;53.176;18.088;2023-04-19T01:22:36;3.22;73.40
79489;SHT31;68949;53.176;18.088;2023-04-19T01:25:04;3.21;73.51
79489;SHT31;68949;53.176;18.088;2023-04-19T01:27:32;3.16;73.64
79489;SHT31;68949;53.176;18.088;2023-04-19T01:29:59;3.13;73.69
79489;SHT31;68949;53.176;18.088;2023-04-19T01:32:26;3.10;73.85
79489;SHT31;68949;53.176;18.088;2023-04-19T01:34:55;3.05;74.18
79489;SHT31;68949;53.176;18.088;2023-04-19T01:37:22;3.03;74.39
79489;SHT31;68949;53.176;18.088;2023-04-19T01:39:49;3.01;74.42
79489;SHT31;68949;53.176;18.088;2023-04-19T01:42:15;2.99;74.48
79489;SHT31;68949;53.176;18.088;2023-04-19T01:44:42;2.98;74.59
79489;SHT31;68949;53.176;18.088;2023-04-19T01:47:09;2.94;74.73
79489;SHT31;68949;53.176;18.088;2023-04-19T01:49:35;2.93;74.84
79489;SHT31;68949;53.176;18.088;2023-04-19T01:52:02;2.91;75.25
79489;SHT31;68949;53.176;18.088;2023-04-19T01:54:29;2.90;75.18
79489;SHT31;68949;53.176;18.088;2023-04-19T01:56:55;2.89;75.28
79489;SHT31;68949;53.176;18.088;2023-04-19T01:59:22;2.88;75.50
79489;SHT31;68949;53.176;18.088;2023-04-19T02:01:49;2.86;75.62
79489;SHT31;68949;53.176;18.088;2023-04-19T02:04:17;2.85;75.64
79489;SHT31;68949;53.176;18.088;2023-04-19T02:06:45;2.84;76.00
79489;SHT31;68949;53.176;18.088;2023-04-19T02:09:12;2.85;76.13
79489;SHT31;68949;53.176;18.088;2023-04-19T02:11:41;2.87;76.40
79489;SHT31;68949;53.176;18.088;2023-04-19T02:14:08;2.86;76.55
79489;SHT31;68949;53.176;18.088;2023-04-19T02:16:35;2.87;76.76
79489;SHT31;68949;53.176;18.088;2023-04-19T02:19:01;2.89;76.92
79489;SHT31;68949;53.176;18.088;2023-04-19T02:21:29;2.92;77.29
79489;SHT31;68949;53.176;18.088;2023-04-19T02:23:57;2.97;77.45
79489;SHT31;68949;53.176;18.088;2023-04-19T02:26:24;2.99;77.24
79489;SHT31;68949;53.176;18.088;2023-04-19T02:28:51;3.03;77.32
79489;SHT31;68949;53.176;18.088;2023-04-19T02:31:18;3.06;77.51
79489;SHT31;68949;53.176;18.088;2023-04-19T02:33:45;3.10;77.55
79489;SHT31;68949;53.176;18.088;2023-04-19T02:36:12;3.14;77.64
79489;SHT31;68949;53.176;18.088;2023-04-19T02:38:38;3.17;77.56
79489;SHT31;68949;53.176;18.088;2023-04-19T02:41:06;3.21;77.73
79489;SHT31;68949;53.176;18.088;2023-04-19T02:43:32;3.24;77.77
79489;SHT31;68949;53.176;18.088;2023-04-19T02:45:59;3.26;77.82
79489;SHT31;68949;53.176;18.088;2023-04-19T02:48:27;3.28;77.86
79489;SHT31;68949;53.176;18.088;2023-04-19T02:50:53;3.27;77.95
79489;SHT31;68949;53.176;18.088;2023-04-19T02:53:20;3.28;78.02
79489;SHT31;68949;53.176;18.088;2023-04-19T02:55:47;3.28;78.14
79489;SHT31;68949;53.176;18.088;2023-04-19T02:58:16;3.27;78.48
79489;SHT31;68949;53.176;18.088;2023-04-19T03:00:53;3.26;78.70
79489;SHT31;68949;53.176;18.088;2023-04-19T03:03:21;3.30;78.87
79489;SHT31;68949;53.176;18.088;2023-04-19T03:05:48;3.34;79.20
79489;SHT31;68949;53.176;18.088;2023-04-19T03:08:15;3.38;79.15
79489;SHT31;68949;53.176;18.088;2023-04-19T03:10:43;3.40;79.28
79489;SHT31;68949;53.176;18.088;2023-04-19T03:13:10;3.44;79.19
79489;SHT31;68949;53.176;18.088;2023-04-19T03:15:36;3.48;79.22
79489;SHT31;68949;53.176;18.088;2023-04-19T03:18:03;3.53;79.24
79489;SHT31;68949;53.176;18.088;2023-04-19T03:20:30;3.58;79.36
79489;SHT31;68949;53.176;18.088;2023-04-19T03:22:57;3.63;79.70
79489;SHT31;68949;53.176;18.088;2023-04-19T03:25:24;3.70;79.77
79489;SHT31;68949;53.176;18.088;2023-04-19T03:27:58;3.75;80.16
79489;SHT31;68949;53.176;18.088;2023-04-19T03:30:44;3.80;80.87
79489;SHT31;68949;53.176;18.088;2023-04-19T03:33:11;3.84;81.13
79489;SHT31;68949;53.176;18.088;2023-04-19T03:35:37;3.85;81.31
79489;SHT31;68949;53.176;18.088;2023-04-19T03:38:08;3.87;81.60
79489;SHT31;68949;53.176;18.088;2023-04-19T03:40:38;3.95;81.43
79489;SHT31;68949;53.176;18.088;2023-04-19T03:43:05;4.05;80.99
79489;SHT31;68949;53.176;18.088;2023-04-19T03:45:33;4.10;81.10
79489;SHT31;68949;53.176;18.088;2023-04-19T03:48:00;4.06;81.32
79489;SHT31;68949;53.176;18.088;2023-04-19T03:50:27;4.02;81.95
79489;SHT31;68949;53.176;18.088;2023-04-19T03:52:54;4.09;81.79
79489;SHT31;68949;53.176;18.088;2023-04-19T03:55:21;4.18;81.67
79489;SHT31;68949;53.176;18.088;2023-04-19T03:57:47;4.23;81.66
79489;SHT31;68949;53.176;18.088;2023-04-19T04:00:32;4.27;81.60
79489;SHT31;68949;53.176;18.088;2023-04-19T04:02:58;4.40;81.48
79489;SHT31;68949;53.176;18.088;2023-04-19T04:05:26;4.46;81.59
79489;SHT31;68949;53.176;18.088;2023-04-19T04:07:54;4.44;81.78
79489;SHT31;68949;53.176;18.088;2023-04-19T04:10:22;4.42;82.28
79489;SHT31;68949;53.176;18.088;2023-04-19T04:12:48;4.43;82.19
79489;SHT31;68949;53.176;18.088;2023-04-19T04:15:20;4.44;82.61
79489;SHT31;68949;53.176;18.088;2023-04-19T04:17:50;4.48;82.96
79489;SHT31;68949;53.176;18.088;2023-04-19T04:20:18;4.50;83.05
79489;SHT31;68949;53.176;18.088;2023-04-19T04:22:45;4.51;83.39
79489;SHT31;68949;53.176;18.088;2023-04-19T04:25:13;4.54;83.57
79489;SHT31;68949;53.176;18.088;2023-04-19T04:27:41;4.56;83.69
79489;SHT31;68949;53.176;18.088;2023-04-19T04:30:12;4.61;83.95
79489;SHT31;68949;53.176;18.088;2023-04-19T04:32:39;4.67;83.76
79489;SHT31;68949;53.176;18.088;2023-04-19T04:35:07;4.71;83.66
79489;SHT31;68949;53.176;18.088;2023-04-19T04:37:50;4.74;83.66
79489;SHT31;68949;53.176;18.088;2023-04-19T04:40:20;4.78;83.40
79489;SHT31;68949;53.176;18.088;2023-04-19T04:42:47;4.78;83.38
79489;SHT31;68949;53.176;18.088;2023-04-19T04:45:16;4.83;83.18
79489;SHT31;68949;53.176;18.088;2023-04-19T04:47:43;4.83;82.85
79489;SHT31;68949;53.176;18.088;2023-04-19T04:50:12;4.84;82.87
79489;SHT31;68949;53.176;18.088;2023-04-19T04:52:39;4.87;82.59
79489;SHT31;68949;53.176;18.088;2023-04-19T04:55:16;4.91;82.15
79489;SHT31;68949;53.176;18.088;2023-04-19T04:57:43;4.93;81.77
79489;SHT31;68949;53.176;18.088;2023-04-19T05:00:15;4.93;81.78
79489;SHT31;68949;53.176;18.088;2023-04-19T05:02:50;4.93;81.71
79489;SHT31;68949;53.176;18.088;2023-04-19T05:05:16;4.93;81.66
79489;SHT31;68949;53.176;18.088;2023-04-19T05:07:43;4.93;81.48
79489;SHT31;68949;53.176;18.088;2023-04-19T05:10:10;4.94;81.28
79489;SHT31;68949;53.176;18.088;2023-04-19T05:12:43;4.97;81.21
79489;SHT31;68949;53.176;18.088;2023-04-19T05:15:09;4.98;81.10
79489;SHT31;68949;53.176;18.088;2023-04-19T05:17:38;4.99;80.90
79489;SHT31;68949;53.176;18.088;2023-04-19T05:20:05;5.01;80.91
79489;SHT31;68949;53.176;18.088;2023-04-19T05:22:33;5.03;80.80
79489;SHT31;68949;53.176;18.088;2023-04-19T05:25:00;5.01;80.91
79489;SHT31;68949;53.176;18.088;2023-04-19T05:27:27;5.01;80.78
79489;SHT31;68949;53.176;18.088;2023-04-19T05:29:54;5.01;80.82
79489;SHT31;68949;53.176;18.088;2023-04-19T05:32:21;5.00;80.63
79489;SHT31;68949;53.176;18.088;2023-04-19T05:34:52;5.01;80.66
79489;SHT31;68949;53.176;18.088;2023-04-19T05:37:20;5.04;80.65
79489;SHT31;68949;53.176;18.088;2023-04-19T05:39:47;5.02;80.62
79489;SHT31;68949;53.176;18.088;2023-04-19T05:42:13;5.00;80.60
79489;SHT31;68949;53.176;18.088;2023-04-19T05:44:40;5.01;80.43
79489;SHT31;68949;53.176;18.088;2023-04-19T05:47:07;5.02;80.46
79489;SHT31;68949;53.176;18.088;2023-04-19T05:49:51;4.98;80.21
79489;SHT31;68949;53.176;18.088;2023-04-19T05:52:28;4.97;80.19
79489;SHT31;68949;53.176;18.088;2023-04-19T05:54:57;4.99;80.12
79489;SHT31;68949;53.176;18.088;2023-04-19T05:57:24;5.02;80.12
79489;SHT31;68949;53.176;18.088;2023-04-19T05:59:51;5.05;80.00
79489;SHT31;68949;53.176;18.088;2023-04-19T06:02:21;5.05;79.92
79489;SHT31;68949;53.176;18.088;2023-04-19T06:04:47;5.08;79.97
79489;SHT31;68949;53.176;18.088;2023-04-19T06:07:14;5.10;79.78
79489;SHT31;68949;53.176;18.088;2023-04-19T06:09:41;5.13;79.62
79489;SHT31;68949;53.176;18.088;2023-04-19T06:12:07;5.20;79.55
79489;SHT31;68949;53.176;18.088;2023-04-19T06:14:34;5.28;79.43
79489;SHT31;68949;53.176;18.088;2023-04-19T06:17:01;5.31;79.55
79489;SHT31;68949;53.176;18.088;2023-04-19T06:19:28;5.34;79.29
79489;SHT31;68949;53.176;18.088;2023-04-19T06:21:55;5.34;79.22
79489;SHT31;68949;53.176;18.088;2023-04-19T06:24:21;5.28;79.19
79489;SHT31;68949;53.176;18.088;2023-04-19T06:26:48;5.25;79.28
79489;SHT31;68949;53.176;18.088;2023-04-19T06:29:15;5.24;79.34
79489;SHT31;68949;53.176;18.088;2023-04-19T06:31:41;5.20;79.36
79489;SHT31;68949;53.176;18.088;2023-04-19T06:34:08;5.19;79.61
79489;SHT31;68949;53.176;18.088;2023-04-19T06:36:36;5.20;79.64
79489;SHT31;68949;53.176;18.088;2023-04-19T06:39:03;5.20;79.50
79489;SHT31;68949;53.176;18.088;2023-04-19T06:41:29;5.15;79.58
79489;SHT31;68949;53.176;18.088;2023-04-19T06:43:56;5.10;79.81
79489;SHT31;68949;53.176;18.088;2023-04-19T06:46:23;5.08;80.09
79489;SHT31;68949;53.176;18.088;2023-04-19T06:48:50;5.02;80.60
79489;SHT31;68949;53.176;18.088;2023-04-19T06:51:16;5.00;81.06
79489;SHT31;68949;53.176;18.088;2023-04-19T06:53:43;4.98;81.72
79489;SHT31;68949;53.176;18.088;2023-04-19T06:56:10;4.97;81.96
79489;SHT31;68949;53.176;18.088;2023-04-19T06:58:38;4.98;82.32
79489;SHT31;68949;53.176;18.088;2023-04-19T07:01:04;4.99;82.44
79489;SHT31;68949;53.176;18.088;2023-04-19T07:03:31;4.97;82.63
79489;SHT31;68949;53.176;18.088;2023-04-19T07:05:58;4.97;83.02
79489;SHT31;68949;53.176;18.088;2023-04-19T07:08:25;4.99;83.30
79489;SHT31;68949;53.176;18.088;2023-04-19T07:10:52;4.99;83.43
79489;SHT31;68949;53.176;18.088;2023-04-19T07:13:19;5.01;83.32
79489;SHT31;68949;53.176;18.088;2023-04-19T07:15:45;5.01;83.46
79489;SHT31;68949;53.176;18.088;2023-04-19T07:18:12;5.00;83.73
79489;SHT31;68949;53.176;18.088;2023-04-19T07:20:41;4.99;83.73
79489;SHT31;68949;53.176;18.088;2023-04-19T07:23:11;5.02;83.95
79489;SHT31;68949;53.176;18.088;2023-04-19T07:25:38;5.06;83.99
79489;SHT31;68949;53.176;18.088;2023-04-19T07:28:05;5.06;84.08
79489;SHT31;68949;53.176;18.088;2023-04-19T07:30:31;5.12;83.88
79489;SHT31;68949;53.176;18.088;2023-04-19T07:32:58;5.14;83.84
79489;SHT31;68949;53.176;18.088;2023-04-19T07:35:25;5.18;83.83
79489;SHT31;68949;53.176;18.088;2023-04-19T07:37:52;5.19;83.86
79489;SHT31;68949;53.176;18.088;2023-04-19T07:40:18;5.21;83.86
79489;SHT31;68949;53.176;18.088;2023-04-19T07:42:45;5.24;83.75
79489;SHT31;68949;53.176;18.088;2023-04-19T07:45:12;5.30;83.69
79489;SHT31;68949;53.176;18.088;2023-04-19T07:47:39;5.35;83.49
79489;SHT31;68949;53.176;18.088;2023-04-19T07:50:06;5.34;83.89
79489;SHT31;68949;53.176;18.088;2023-04-19T07:52:34;5.32;83.83
79489;SHT31;68949;53.176;18.088;2023-04-19T07:55:01;5.36;83.89
79489;SHT31;68949;53.176;18.088;2023-04-19T07:57:27;5.40;83.60
79489;SHT31;68949;53.176;18.088;2023-04-19T07:59:54;5.44;83.59
79489;SHT31;68949;53.176;18.088;2023-04-19T08:02:26;5.49;83.54
79489;SHT31;68949;53.176;18.088;2023-04-19T08:04:53;5.50;83.56
79489;SHT31;68949;53.176;18.088;2023-04-19T08:07:19;5.53;83.71
79489;SHT31;68949;53.176;18.088;2023-04-19T08:09:48;5.57;83.78
79489;SHT31;68949;53.176;18.088;2023-04-19T08:12:15;5.62;83.96
79489;SHT31;68949;53.176;18.088;2023-04-19T08:14:41;5.67;83.75
79489;SHT31;68949;53.176;18.088;2023-04-19T08:17:08;5.71;83.85
79489;SHT31;68949;53.176;18.088;2023-04-19T08:19:35;5.74;83.68
79489;SHT31;68949;53.176;18.088;2023-04-19T08:22:02;5.80;83.71
79489;SHT31;68949;53.176;18.088;2023-04-19T08:24:30;5.84;83.76
79489;SHT31;68949;53.176;18.088;2023-04-19T08:26:56;5.87;83.41
79489;SHT31;68949;53.176;18.088;2023-04-19T08:29:23;5.90;83.47
79489;SHT31;68949;53.176;18.088;2023-04-19T08:31:49;5.94;83.56
79489;SHT31;68949;53.176;18.088;2023-04-19T08:34:16;5.98;83.13
79489;SHT31;68949;53.176;18.088;2023-04-19T08:36:43;6.05;82.85
79489;SHT31;68949;53.176;18.088;2023-04-19T08:39:11;6.11;82.13
79489;SHT31;68949;53.176;18.088;2023-04-19T08:41:38;6.18;81.80
79489;SHT31;68949;53.176;18.088;2023-04-19T08:44:05;6.24;81.48
79489;SHT31;68949;53.176;18.088;2023-04-19T08:46:32;6.32;81.44
79489;SHT31;68949;53.176;18.088;2023-04-19T08:48:59;6.35;81.14
79489;SHT31;68949;53.176;18.088;2023-04-19T08:51:27;6.39;80.31
79489;SHT31;68949;53.176;18.088;2023-04-19T08:53:55;6.45;80.37
79489;SHT31;68949;53.176;18.088;2023-04-19T08:56:23;6.47;80.24
79489;SHT31;68949;53.176;18.088;2023-04-19T08:58:50;6.51;79.66
79489;SHT31;68949;53.176;18.088;2023-04-19T09:01:17;6.55;79.32
79489;SHT31;68949;53.176;18.088;2023-04-19T09:03:44;6.59;79.85
79489;SHT31;68949;53.176;18.088;2023-04-19T09:06:11;6.62;80.03
79489;SHT31;68949;53.176;18.088;2023-04-19T09:08:38;6.63;80.00
79489;SHT31;68949;53.176;18.088;2023-04-19T09:11:06;6.65;79.82
79489;SHT31;68949;53.176;18.088;2023-04-19T09:13:34;6.66;80.03
79489;SHT31;68949;53.176;18.088;2023-04-19T09:16:03;6.69;79.48
79489;SHT31;68949;53.176;18.088;2023-04-19T09:18:33;6.74;79.54
79489;SHT31;68949;53.176;18.088;2023-04-19T09:21:27;6.78;80.04
79489;SHT31;68949;53.176;18.088;2023-04-19T09:23:58;6.84;79.56
79489;SHT31;68949;53.176;18.088;2023-04-19T09:26:26;6.89;78.93
79489;SHT31;68949;53.176;18.088;2023-04-19T09:28:57;6.92;77.95
79489;SHT31;68949;53.176;18.088;2023-04-19T09:31:33;6.98;77.52
79489;SHT31;68949;53.176;18.088;2023-04-19T09:34:11;7.03;76.20
79489;SHT31;68949;53.176;18.088;2023-04-19T09:36:40;7.05;75.27
79489;SHT31;68949;53.176;18.088;2023-04-19T09:39:07;7.11;75.09
79489;SHT31;68949;53.176;18.088;2023-04-19T09:41:34;7.14;75.26
79489;SHT31;68949;53.176;18.088;2023-04-19T09:44:09;7.20;74.34
79489;SHT31;68949;53.176;18.088;2023-04-19T09:46:38;7.21;74.40
79489;SHT31;68949;53.176;18.088;2023-04-19T09:54:17;7.33;74.74
79489;SHT31;68949;53.176;18.088;2023-04-19T09:56:47;7.41;74.55
79489;SHT31;68949;53.176;18.088;2023-04-19T09:59:15;7.47;74.44
79489;SHT31;68949;53.176;18.088;2023-04-19T10:04:14;7.56;74.19
79489;SHT31;68949;53.176;18.088;2023-04-19T10:06:48;7.61;74.29
79489;SHT31;68949;53.176;18.088;2023-04-19T10:09:18;7.66;74.31
79489;SHT31;68949;53.176;18.088;2023-04-19T10:11:53;7.70;73.71
79489;SHT31;68949;53.176;18.088;2023-04-19T10:14:23;7.73;73.63
79489;SHT31;68949;53.176;18.088;2023-04-19T10:16:51;7.74;73.13
79489;SHT31;68949;53.176;18.088;2023-04-19T10:19:19;7.76;72.91
79489;SHT31;68949;53.176;18.088;2023-04-19T10:21:48;7.81;73.02
79489;SHT31;68949;53.176;18.088;2023-04-19T10:24:16;7.86;73.27
79489;SHT31;68949;53.176;18.088;2023-04-19T10:32:28;8.03;72.68
79489;SHT31;68949;53.176;18.088;2023-04-19T10:35:06;8.09;72.37
79489;SHT31;68949;53.176;18.088;2023-04-19T10:38:00;8.20;72.88
79489;SHT31;68949;53.176;18.088;2023-04-19T10:43:22;8.30;71.97
79489;SHT31;68949;53.176;18.088;2023-04-19T10:45:52;8.37;71.85
79489;SHT31;68949;53.176;18.088;2023-04-19T10:53:52;8.47;71.96
79489;SHT31;68949;53.176;18.088;2023-04-19T11:04:13;8.25;73.37
79489;SHT31;68949;53.176;18.088;2023-04-19T11:09:21;8.11;73.67
79489;SHT31;68949;53.176;18.088;2023-04-19T11:11:52;8.06;74.13
79489;SHT31;68949;53.176;18.088;2023-04-19T11:14:22;7.98;74.67
79489;SHT31;68949;53.176;18.088;2023-04-19T11:16:49;7.80;75.07
79489;SHT31;68949;53.176;18.088;2023-04-19T11:19:16;7.66;75.65
79489;SHT31;68949;53.176;18.088;2023-04-19T11:21:45;7.58;76.07
79489;SHT31;68949;53.176;18.088;2023-04-19T11:24:13;7.48;76.48
79489;SHT31;68949;53.176;18.088;2023-04-19T11:26:45;7.40;76.79
79489;SHT31;68949;53.176;18.088;2023-04-19T11:29:14;7.36;76.91
79489;SHT31;68949;53.176;18.088;2023-04-19T11:31:44;7.28;77.11
79489;SHT31;68949;53.176;18.088;2023-04-19T11:34:12;7.27;77.14
79489;SHT31;68949;53.176;18.088;2023-04-19T11:36:49;7.23;77.41
79489;SHT31;68949;53.176;18.088;2023-04-19T11:39:17;7.19;77.72
79489;SHT31;68949;53.176;18.088;2023-04-19T11:41:45;7.16;77.78
79489;SHT31;68949;53.176;18.088;2023-04-19T11:44:13;7.13;77.77
79489;SHT31;68949;53.176;18.088;2023-04-19T11:47:00;7.15;77.87
79489;SHT31;68949;53.176;18.088;2023-04-19T11:49:31;7.14;77.88
79489;SHT31;68949;53.176;18.088;2023-04-19T11:51:59;7.13;78.01
79489;SHT31;68949;53.176;18.088;2023-04-19T11:54:30;7.14;78.02
79489;SHT31;68949;53.176;18.088;2023-04-19T11:57:05;7.14;78.20
79489;SHT31;68949;53.176;18.088;2023-04-19T11:59:34;7.14;77.80
79489;SHT31;68949;53.176;18.088;2023-04-19T12:02:06;7.12;77.96
79489;SHT31;68949;53.176;18.088;2023-04-19T12:04:38;7.12;78.02
79489;SHT31;68949;53.176;18.088;2023-04-19T12:07:05;7.10;78.11
79489;SHT31;68949;53.176;18.088;2023-04-19T12:09:33;7.06;78.31
79489;SHT31;68949;53.176;18.088;2023-04-19T12:12:02;7.05;78.77
79489;SHT31;68949;53.176;18.088;2023-04-19T12:14:29;7.05;79.49
79489;SHT31;68949;53.176;18.088;2023-04-19T12:17:07;7.06;79.89
79489;SHT31;68949;53.176;18.088;2023-04-19T12:19:43;7.06;80.27
79489;SHT31;68949;53.176;18.088;2023-04-19T12:22:16;7.03;80.36
79489;SHT31;68949;53.176;18.088;2023-04-19T12:24:52;7.03;80.47
79489;SHT31;68949;53.176;18.088;2023-04-19T12:27:21;7.01;80.55
79489;SHT31;68949;53.176;18.088;2023-04-19T12:29:47;7.02;80.53
79489;SHT31;68949;53.176;18.088;2023-04-19T12:32:14;7.07;80.56
79489;SHT31;68949;53.176;18.088;2023-04-19T12:34:41;7.06;80.29
79489;SHT31;68949;53.176;18.088;2023-04-19T12:37:07;7.05;80.12
79489;SHT31;68949;53.176;18.088;2023-04-19T12:39:34;7.05;79.99
79489;SHT31;68949;53.176;18.088;2023-04-19T12:42:01;7.01;79.80
79489;SHT31;68949;53.176;18.088;2023-04-19T12:44:28;7.03;80.07
79489;SHT31;68949;53.176;18.088;2023-04-19T12:46:54;7.07;80.02
79489;SHT31;68949;53.176;18.088;2023-04-19T12:49:22;7.11;79.84
79489;SHT31;68949;53.176;18.088;2023-04-19T12:51:49;7.14;79.65
79489;SHT31;68949;53.176;18.088;2023-04-19T12:54:16;7.17;79.43
79489;SHT31;68949;53.176;18.088;2023-04-19T12:56:42;7.22;79.43
79489;SHT31;68949;53.176;18.088;2023-04-19T12:59:09;7.26;79.41
79489;SHT31;68949;53.176;18.088;2023-04-19T13:01:36;7.27;79.47
79489;SHT31;68949;53.176;18.088;2023-04-19T13:04:03;7.24;79.65
79489;SHT31;68949;53.176;18.088;2023-04-19T13:06:30;7.29;79.63
79489;SHT31;68949;53.176;18.088;2023-04-19T13:08:57;7.28;79.54
79489;SHT31;68949;53.176;18.088;2023-04-19T13:11:24;7.25;79.54
79489;SHT31;68949;53.176;18.088;2023-04-19T13:13:50;7.22;79.70
79489;SHT31;68949;53.176;18.088;2023-04-19T13:16:17;7.24;79.70
79489;SHT31;68949;53.176;18.088;2023-04-19T13:18:45;7.24;79.71
79489;SHT31;68949;53.176;18.088;2023-04-19T13:21:12;7.25;79.86
79489;SHT31;68949;53.176;18.088;2023-04-19T13:23:38;7.29;79.89
79489;SHT31;68949;53.176;18.088;2023-04-19T13:26:05;7.30;79.65
79489;SHT31;68949;53.176;18.088;2023-04-19T13:28:32;7.26;79.61
79489;SHT31;68949;53.176;18.088;2023-04-19T13:31:01;7.27;79.91
79489;SHT31;68949;53.176;18.088;2023-04-19T13:33:29;7.30;79.94
79489;SHT31;68949;53.176;18.088;2023-04-19T13:35:56;7.28;79.86
79489;SHT31;68949;53.176;18.088;2023-04-19T13:38:23;7.29;80.32
79489;SHT31;68949;53.176;18.088;2023-04-19T13:40:50;7.29;80.65
79489;SHT31;68949;53.176;18.088;2023-04-19T13:43:17;7.33;80.89
79489;SHT31;68949;53.176;18.088;2023-04-19T13:45:44;7.39;81.34
79489;SHT31;68949;53.176;18.088;2023-04-19T13:48:11;7.47;81.55
79489;SHT31;68949;53.176;18.088;2023-04-19T13:50:37;7.52;81.70
79489;SHT31;68949;53.176;18.088;2023-04-19T13:53:04;7.64;81.44
79489;SHT31;68949;53.176;18.088;2023-04-19T13:55:31;7.78;81.43
79489;SHT31;68949;53.176;18.088;2023-04-19T13:57:58;7.89;81.52
79489;SHT31;68949;53.176;18.088;2023-04-19T14:00:24;7.97;81.32
79489;SHT31;68949;53.176;18.088;2023-04-19T14:02:52;8.07;81.32
79489;SHT31;68949;53.176;18.088;2023-04-19T14:05:20;8.15;81.22
79489;SHT31;68949;53.176;18.088;2023-04-19T14:07:47;8.24;80.54
79489;SHT31;68949;53.176;18.088;2023-04-19T14:10:14;8.28;79.91
79489;SHT31;68949;53.176;18.088;2023-04-19T14:12:41;8.30;79.49
79489;SHT31;68949;53.176;18.088;2023-04-19T14:15:07;8.34;79.70
79489;SHT31;68949;53.176;18.088;2023-04-19T14:17:34;8.38;79.41
79489;SHT31;68949;53.176;18.088;2023-04-19T14:20:01;8.41;79.39
79489;SHT31;68949;53.176;18.088;2023-04-19T14:22:29;8.46;79.18
79489;SHT31;68949;53.176;18.088;2023-04-19T14:24:57;8.44;78.43
79489;SHT31;68949;53.176;18.088;2023-04-19T14:27:24;8.41;78.38
79489;SHT31;68949;53.176;18.088;2023-04-19T14:29:51;8.44;78.55
79489;SHT31;68949;53.176;18.088;2023-04-19T14:32:18;8.50;78.78
79489;SHT31;68949;53.176;18.088;2023-04-19T14:34:45;8.56;78.46
79489;SHT31;68949;53.176;18.088;2023-04-19T14:37:11;8.59;78.19
79489;SHT31;68949;53.176;18.088;2023-04-19T14:39:38;8.62;77.88
79489;SHT31;68949;53.176;18.088;2023-04-19T14:42:05;8.61;77.77
79489;SHT31;68949;53.176;18.088;2023-04-19T14:44:32;8.58;77.20
79489;SHT31;68949;53.176;18.088;2023-04-19T14:46:58;8.59;77.49
79489;SHT31;68949;53.176;18.088;2023-04-19T14:49:25;8.61;77.25
79489;SHT31;68949;53.176;18.088;2023-04-19T14:51:52;8.62;76.98
79489;SHT31;68949;53.176;18.088;2023-04-19T14:54:19;8.61;76.98
79489;SHT31;68949;53.176;18.088;2023-04-19T14:56:46;8.61;77.02
79489;SHT31;68949;53.176;18.088;2023-04-19T14:59:12;8.60;76.98
79489;SHT31;68949;53.176;18.088;2023-04-19T15:01:39;8.58;77.07
79489;SHT31;68949;53.176;18.088;2023-04-19T15:04:06;8.58;76.83
79489;SHT31;68949;53.176;18.088;2023-04-19T15:06:33;8.55;76.74
79489;SHT31;68949;53.176;18.088;2023-04-19T15:08:59;8.55;76.93
79489;SHT31;68949;53.176;18.088;2023-04-19T15:11:26;8.56;77.08
79489;SHT31;68949;53.176;18.088;2023-04-19T15:13:53;8.60;76.86
79489;SHT31;68949;53.176;18.088;2023-04-19T15:16:19;8.64;76.83
79489;SHT31;68949;53.176;18.088;2023-04-19T15:18:46;8.68;77.02
79489;SHT31;68949;53.176;18.088;2023-04-19T15:21:13;8.70;76.54
79489;SHT31;68949;53.176;18.088;2023-04-19T15:23:39;8.74;76.61
79489;SHT31;68949;53.176;18.088;2023-04-19T15:26:06;8.81;76.76
79489;SHT31;68949;53.176;18.088;2023-04-19T15:28:33;8.94;76.18
79489;SHT31;68949;53.176;18.088;2023-04-19T15:31:04;9.04;75.84
79489;SHT31;68949;53.176;18.088;2023-04-19T15:33:33;9.13;75.91
79489;SHT31;68949;53.176;18.088;2023-04-19T15:36:01;9.21;75.96
79489;SHT31;68949;53.176;18.088;2023-04-19T15:38:29;9.24;75.75
79489;SHT31;68949;53.176;18.088;2023-04-19T15:40:58;9.25;75.95
79489;SHT31;68949;53.176;18.088;2023-04-19T15:43:28;9.24;75.88
79489;SHT31;68949;53.176;18.088;2023-04-19T15:45:55;9.22;76.17
79489;SHT31;68949;53.176;18.088;2023-04-19T15:48:21;9.19;75.98
79489;SHT31;68949;53.176;18.088;2023-04-19T15:50:48;9.13;76.16
79489;SHT31;68949;53.176;18.088;2023-04-19T15:53:15;9.10;76.52
79489;SHT31;68949;53.176;18.088;2023-04-19T15:55:42;9.10;76.59
79489;SHT31;68949;53.176;18.088;2023-04-19T15:58:11;9.08;76.88
79489;SHT31;68949;53.176;18.088;2023-04-19T16:00:39;9.07;76.72
79489;SHT31;68949;53.176;18.088;2023-04-19T16:03:07;9.04;76.40
79489;SHT31;68949;53.176;18.088;2023-04-19T16:05:36;8.99;76.31
79489;SHT31;68949;53.176;18.088;2023-04-19T16:08:04;8.98;76.31